sensor_id;sensor_type;location;lat;lon;timestamp;P1;durP1;ratioP1;P2;durP2;ratioP2
14001;SDS011;7076;51.280;12.584;2023-04-25T00:02:06;3.63;;;2.55;;
14001;SDS011;7076;51.280;12.584;2023-04-25T00:07:11;2.22;;;2.03;;
14001;SDS011;7076;51.280;12.584;2023-04-25T00:12:14;4.72;;;2.70;;
14001;SDS011;7076;51.280;12.584;2023-04-25T00:17:17;3.58;;;2.85;;
14001;SDS011;7076;51.280;12.584;2023-04-25T00:22:21;3.15;;;2.58;;
14001;SDS011;7076;51.280;12.584;2023-04-25T00:27:24;3.25;;;2.38;;
14001;SDS011;7076;51.280;12.584;2023-04-25T00:32:27;5.60;;;2.60;;
14001;SDS011;7076;51.280;12.584;2023-04-25T00:37:32;4.45;;;2.10;;
14001;SDS011;7076;51.280;12.584;2023-04-25T00:42:35;5.47;;;2.83;;
14001;SDS011;7076;51.280;12.584;2023-04-25T00:47:39;4.40;;;2.20;;
14001;SDS011;7076;51.280;12.584;2023-04-25T00:52:43;4.45;;;2.42;;
14001;SDS011;7076;51.280;12.584;2023-04-25T00:57:47;3.10;;;2.45;;
14001;SDS011;7076;51.280;12.584;2023-04-25T01:02:49;5.10;;;2.67;;
14001;SDS011;7076;51.280;12.584;2023-04-25T01:07:54;3.95;;;2.72;;
14001;SDS011;7076;51.280;12.584;2023-04-25T01:12:57;3.10;;;2.20;;
14001;SDS011;7076;51.280;12.584;2023-04-25T01:17:59;3.92;;;2.90;;
14001;SDS011;7076;51.280;12.584;2023-04-25T01:23:04;3.10;;;2.63;;
14001;SDS011;7076;51.280;12.584;2023-04-25T01:28:07;5.82;;;3.38;;
14001;SDS011;7076;51.280;12.584;2023-04-25T01:33:10;5.63;;;2.97;;
14001;SDS011;7076;51.280;12.584;2023-04-25T01:38:15;3.42;;;2.78;;
14001;SDS011;7076;51.280;12.584;2023-04-25T01:43:17;4.45;;;2.85;;
14001;SDS011;7076;51.280;12.584;2023-04-25T01:48:20;4.32;;;3.13;;
14001;SDS011;7076;51.280;12.584;2023-04-25T01:53:24;7.25;;;3.25;;
14001;SDS011;7076;51.280;12.584;2023-04-25T01:58:27;4.88;;;3.28;;
14001;SDS011;7076;51.280;12.584;2023-04-25T02:03:39;5.40;;;3.40;;
14001;SDS011;7076;51.280;12.584;2023-04-25T02:08:51;3.85;;;3.45;;
14001;SDS011;7076;51.280;12.584;2023-04-25T02:13:54;5.10;;;3.37;;
14001;SDS011;7076;51.280;12.584;2023-04-25T02:19:17;4.95;;;3.50;;
14001;SDS011;7076;51.280;12.584;2023-04-25T02:24:22;5.03;;;3.53;;
14001;SDS011;7076;51.280;12.584;2023-04-25T02:29:25;5.33;;;3.53;;
14001;SDS011;7076;51.280;12.584;2023-04-25T02:34:28;5.78;;;3.83;;
14001;SDS011;7076;51.280;12.584;2023-04-25T02:39:32;4.50;;;3.63;;
14001;SDS011;7076;51.280;12.584;2023-04-25T02:44:34;4.28;;;3.15;;
14001;SDS011;7076;51.280;12.584;2023-04-25T02:49:39;4.90;;;3.38;;
14001;SDS011;7076;51.280;12.584;2023-04-25T02:54:43;9.15;;;3.55;;
14001;SDS011;7076;51.280;12.584;2023-04-25T02:59:46;5.53;;;3.38;;
14001;SDS011;7076;51.280;12.584;2023-04-25T03:04:49;4.35;;;3.60;;
14001;SDS011;7076;51.280;12.584;2023-04-25T03:09:53;7.13;;;3.50;;
14001;SDS011;7076;51.280;12.584;2023-04-25T03:14:57;5.45;;;3.30;;
14001;SDS011;7076;51.280;12.584;2023-04-25T03:20:00;8.00;;;3.90;;
14001;SDS011;7076;51.280;12.584;2023-04-25T03:25:09;3.95;;;3.28;;
14001;SDS011;7076;51.280;12.584;2023-04-25T03:30:12;5.25;;;3.45;;
14001;SDS011;7076;51.280;12.584;2023-04-25T03:35:17;4.35;;;3.45;;
14001;SDS011;7076;51.280;12.584;2023-04-25T03:40:21;6.40;;;3.50;;
14001;SDS011;7076;51.280;12.584;2023-04-25T03:45:50;6.07;;;3.13;;
14001;SDS011;7076;51.280;12.584;2023-04-25T03:50:55;4.63;;;3.40;;
14001;SDS011;7076;51.280;12.584;2023-04-25T03:56:00;4.32;;;3.30;;
14001;SDS011;7076;51.280;12.584;2023-04-25T04:01:06;5.13;;;3.80;;
14001;SDS011;7076;51.280;12.584;2023-04-25T04:06:12;3.95;;;3.47;;
14001;SDS011;7076;51.280;12.584;2023-04-25T04:11:20;4.68;;;3.55;;
14001;SDS011;7076;51.280;12.584;2023-04-25T04:16:23;6.22;;;3.75;;
14001;SDS011;7076;51.280;12.584;2023-04-25T04:21:26;5.78;;;3.60;;
14001;SDS011;7076;51.280;12.584;2023-04-25T04:26:30;6.97;;;4.30;;
14001;SDS011;7076;51.280;12.584;2023-04-25T04:31:42;6.10;;;3.47;;
14001;SDS011;7076;51.280;12.584;2023-04-25T04:36:45;6.72;;;3.17;;
14001;SDS011;7076;51.280;12.584;2023-04-25T04:41:49;6.40;;;4.25;;
14001;SDS011;7076;51.280;12.584;2023-04-25T04:47:09;7.88;;;4.00;;
14001;SDS011;7076;51.280;12.584;2023-04-25T04:52:30;5.88;;;3.72;;
14001;SDS011;7076;51.280;12.584;2023-04-25T04:57:58;6.53;;;3.80;;
14001;SDS011;7076;51.280;12.584;2023-04-25T05:03:22;7.53;;;3.72;;
14001;SDS011;7076;51.280;12.584;2023-04-25T05:08:37;5.50;;;3.70;;
14001;SDS011;7076;51.280;12.584;2023-04-25T05:13:58;6.30;;;3.42;;
14001;SDS011;7076;51.280;12.584;2023-04-25T05:19:20;6.30;;;4.07;;
14001;SDS011;7076;51.280;12.584;2023-04-25T05:24:36;9.82;;;4.32;;
14001;SDS011;7076;51.280;12.584;2023-04-25T05:30:21;6.85;;;4.05;;
14001;SDS011;7076;51.280;12.584;2023-04-25T05:35:40;8.00;;;4.82;;
14001;SDS011;7076;51.280;12.584;2023-04-25T05:40:46;7.00;;;4.13;;
14001;SDS011;7076;51.280;12.584;2023-04-25T05:46:08;8.70;;;4.88;;
14001;SDS011;7076;51.280;12.584;2023-04-25T05:51:19;9.68;;;5.05;;
14001;SDS011;7076;51.280;12.584;2023-04-25T05:56:39;8.10;;;4.90;;
14001;SDS011;7076;51.280;12.584;2023-04-25T06:01:43;6.80;;;5.00;;
14001;SDS011;7076;51.280;12.584;2023-04-25T06:06:46;8.43;;;5.97;;
14001;SDS011;7076;51.280;12.584;2023-04-25T06:11:49;12.07;;;5.93;;
14001;SDS011;7076;51.280;12.584;2023-04-25T06:16:54;11.20;;;5.43;;
14001;SDS011;7076;51.280;12.584;2023-04-25T06:21:56;14.00;;;5.70;;
14001;SDS011;7076;51.280;12.584;2023-04-25T06:26:59;9.43;;;5.63;;
14001;SDS011;7076;51.280;12.584;2023-04-25T06:32:12;12.82;;;5.88;;
14001;SDS011;7076;51.280;12.584;2023-04-25T06:37:20;9.38;;;5.60;;
14001;SDS011;7076;51.280;12.584;2023-04-25T06:42:25;12.05;;;6.32;;
14001;SDS011;7076;51.280;12.584;2023-04-25T06:47:35;14.95;;;5.75;;
14001;SDS011;7076;51.280;12.584;2023-04-25T06:52:39;8.77;;;4.85;;
14001;SDS011;7076;51.280;12.584;2023-04-25T06:57:42;6.18;;;4.15;;
14001;SDS011;7076;51.280;12.584;2023-04-25T07:03:08;6.43;;;3.95;;
14001;SDS011;7076;51.280;12.584;2023-04-25T07:08:12;4.68;;;3.05;;
14001;SDS011;7076;51.280;12.584;2023-04-25T07:13:15;6.55;;;3.55;;
14001;SDS011;7076;51.280;12.584;2023-04-25T07:18:20;6.90;;;3.72;;
14001;SDS011;7076;51.280;12.584;2023-04-25T07:23:25;8.20;;;4.00;;
14001;SDS011;7076;51.280;12.584;2023-04-25T07:28:31;5.90;;;3.47;;
14001;SDS011;7076;51.280;12.584;2023-04-25T07:33:40;8.68;;;3.42;;
14001;SDS011;7076;51.280;12.584;2023-04-25T07:38:46;8.40;;;3.42;;
14001;SDS011;7076;51.280;12.584;2023-04-25T07:43:50;6.30;;;3.63;;
14001;SDS011;7076;51.280;12.584;2023-04-25T07:49:05;6.82;;;4.00;;
14001;SDS011;7076;51.280;12.584;2023-04-25T07:54:09;6.68;;;3.90;;
14001;SDS011;7076;51.280;12.584;2023-04-25T07:59:23;6.50;;;4.28;;
14001;SDS011;7076;51.280;12.584;2023-04-25T08:04:34;6.20;;;4.13;;
14001;SDS011;7076;51.280;12.584;2023-04-25T08:09:41;4.72;;;3.83;;
14001;SDS011;7076;51.280;12.584;2023-04-25T08:14:51;7.68;;;4.57;;
14001;SDS011;7076;51.280;12.584;2023-04-25T08:20:01;5.85;;;4.57;;
14001;SDS011;7076;51.280;12.584;2023-04-25T08:25:08;11.57;;;4.63;;
14001;SDS011;7076;51.280;12.584;2023-04-25T08:30:13;8.02;;;4.47;;
14001;SDS011;7076;51.280;12.584;2023-04-25T08:35:18;8.90;;;5.20;;
14001;SDS011;7076;51.280;12.584;2023-04-25T08:40:22;8.88;;;4.03;;
14001;SDS011;7076;51.280;12.584;2023-04-25T08:45:34;7.40;;;2.33;;
14001;SDS011;7076;51.280;12.584;2023-04-25T08:50:40;7.80;;;1.90;;
14001;SDS011;7076;51.280;12.584;2023-04-25T08:55:43;4.85;;;1.45;;
14001;SDS011;7076;51.280;12.584;2023-04-25T09:00:46;6.57;;;1.70;;
14001;SDS011;7076;51.280;12.584;2023-04-25T09:05:52;7.32;;;1.83;;
14001;SDS011;7076;51.280;12.584;2023-04-25T09:10:55;5.30;;;1.70;;
14001;SDS011;7076;51.280;12.584;2023-04-25T09:15:59;4.20;;;1.60;;
14001;SDS011;7076;51.280;12.584;2023-04-25T09:21:23;4.32;;;1.85;;
14001;SDS011;7076;51.280;12.584;2023-04-25T09:26:27;2.50;;;1.27;;
14001;SDS011;7076;51.280;12.584;2023-04-25T09:31:38;6.03;;;1.95;;
14001;SDS011;7076;51.280;12.584;2023-04-25T09:36:46;5.00;;;1.63;;
14001;SDS011;7076;51.280;12.584;2023-04-25T09:42:14;9.02;;;2.15;;
14001;SDS011;7076;51.280;12.584;2023-04-25T09:47:18;5.43;;;1.65;;
14001;SDS011;7076;51.280;12.584;2023-04-25T09:52:30;5.03;;;1.95;;
14001;SDS011;7076;51.280;12.584;2023-04-25T09:57:50;6.22;;;2.42;;
14001;SDS011;7076;51.280;12.584;2023-04-25T10:02:57;4.45;;;2.45;;
14001;SDS011;7076;51.280;12.584;2023-04-25T10:08:24;5.13;;;2.30;;
14001;SDS011;7076;51.280;12.584;2023-04-25T10:13:31;6.95;;;2.28;;
14001;SDS011;7076;51.280;12.584;2023-04-25T10:18:34;9.25;;;2.50;;
14001;SDS011;7076;51.280;12.584;2023-04-25T10:23:43;9.20;;;2.45;;
14001;SDS011;7076;51.280;12.584;2023-04-25T10:28:54;5.07;;;2.08;;
14001;SDS011;7076;51.280;12.584;2023-04-25T10:34:01;5.25;;;2.53;;
14001;SDS011;7076;51.280;12.584;2023-04-25T10:39:07;9.77;;;2.80;;
14001;SDS011;7076;51.280;12.584;2023-04-25T10:44:14;8.70;;;3.10;;
14001;SDS011;7076;51.280;12.584;2023-04-25T10:49:31;6.80;;;2.72;;
14001;SDS011;7076;51.280;12.584;2023-04-25T10:54:41;3.65;;;2.60;;
14001;SDS011;7076;51.280;12.584;2023-04-25T10:59:46;8.35;;;3.22;;
14001;SDS011;7076;51.280;12.584;2023-04-25T11:04:49;9.98;;;3.50;;
14001;SDS011;7076;51.280;12.584;2023-04-25T11:10:04;7.03;;;2.90;;
14001;SDS011;7076;51.280;12.584;2023-04-25T11:15:07;9.55;;;3.47;;
14001;SDS011;7076;51.280;12.584;2023-04-25T11:20:10;12.68;;;4.30;;
14001;SDS011;7076;51.280;12.584;2023-04-25T11:25:16;7.05;;;3.20;;
14001;SDS011;7076;51.280;12.584;2023-04-25T11:30:19;9.30;;;3.40;;
14001;SDS011;7076;51.280;12.584;2023-04-25T11:35:23;12.93;;;4.38;;
14001;SDS011;7076;51.280;12.584;2023-04-25T11:40:28;10.10;;;3.40;;
14001;SDS011;7076;51.280;12.584;2023-04-25T11:45:32;8.63;;;3.50;;
14001;SDS011;7076;51.280;12.584;2023-04-25T11:50:35;8.70;;;3.38;;
14001;SDS011;7076;51.280;12.584;2023-04-25T11:55:39;8.18;;;3.47;;
14001;SDS011;7076;51.280;12.584;2023-04-25T12:00:42;10.65;;;4.07;;
14001;SDS011;7076;51.280;12.584;2023-04-25T12:05:51;10.52;;;3.75;;
14001;SDS011;7076;51.280;12.584;2023-04-25T12:10:56;7.10;;;2.83;;
14001;SDS011;7076;51.280;12.584;2023-04-25T12:15:59;9.70;;;3.35;;
14001;SDS011;7076;51.280;12.584;2023-04-25T12:21:03;10.27;;;2.78;;
14001;SDS011;7076;51.280;12.584;2023-04-25T12:26:08;8.73;;;1.88;;
14001;SDS011;7076;51.280;12.584;2023-04-25T12:31:21;8.13;;;2.20;;
14001;SDS011;7076;51.280;12.584;2023-04-25T12:36:27;8.45;;;2.00;;
14001;SDS011;7076;51.280;12.584;2023-04-25T12:41:40;4.22;;;1.92;;
14001;SDS011;7076;51.280;12.584;2023-04-25T12:46:43;5.60;;;1.83;;
14001;SDS011;7076;51.280;12.584;2023-04-25T12:51:55;5.82;;;1.70;;
14001;SDS011;7076;51.280;12.584;2023-04-25T12:57:13;12.77;;;2.00;;
14001;SDS011;7076;51.280;12.584;2023-04-25T13:02:16;5.28;;;1.90;;
14001;SDS011;7076;51.280;12.584;2023-04-25T13:07:19;9.85;;;1.80;;
14001;SDS011;7076;51.280;12.584;2023-04-25T13:12:26;5.30;;;2.22;;
14001;SDS011;7076;51.280;12.584;2023-04-25T13:17:30;6.28;;;1.70;;
14001;SDS011;7076;51.280;12.584;2023-04-25T13:22:41;2.05;;;1.17;;
14001;SDS011;7076;51.280;12.584;2023-04-25T13:27:48;5.40;;;1.30;;
14001;SDS011;7076;51.280;12.584;2023-04-25T13:32:55;5.50;;;1.40;;
14001;SDS011;7076;51.280;12.584;2023-04-25T13:37:58;3.25;;;0.90;;
14001;SDS011;7076;51.280;12.584;2023-04-25T13:43:08;5.82;;;1.23;;
14001;SDS011;7076;51.280;12.584;2023-04-25T13:48:11;3.53;;;1.08;;
14001;SDS011;7076;51.280;12.584;2023-04-25T13:53:18;2.17;;;1.15;;
14001;SDS011;7076;51.280;12.584;2023-04-25T13:58:25;2.40;;;0.90;;
14001;SDS011;7076;51.280;12.584;2023-04-25T14:03:35;2.75;;;0.90;;
14001;SDS011;7076;51.280;12.584;2023-04-25T14:08:41;5.15;;;1.13;;
14001;SDS011;7076;51.280;12.584;2023-04-25T14:13:46;7.63;;;1.50;;
14001;SDS011;7076;51.280;12.584;2023-04-25T14:18:49;3.97;;;1.63;;
14001;SDS011;7076;51.280;12.584;2023-04-25T14:23:52;4.70;;;1.33;;
14001;SDS011;7076;51.280;12.584;2023-04-25T14:28:56;4.63;;;1.77;;
14001;SDS011;7076;51.280;12.584;2023-04-25T14:33:59;5.53;;;1.20;;
14001;SDS011;7076;51.280;12.584;2023-04-25T14:39:12;6.00;;;1.38;;
14001;SDS011;7076;51.280;12.584;2023-04-25T14:44:17;3.75;;;1.02;;
14001;SDS011;7076;51.280;12.584;2023-04-25T14:49:25;6.35;;;1.50;;
14001;SDS011;7076;51.280;12.584;2023-04-25T14:54:30;5.45;;;1.20;;
14001;SDS011;7076;51.280;12.584;2023-04-25T14:59:46;2.45;;;1.30;;
14001;SDS011;7076;51.280;12.584;2023-04-25T15:04:50;5.97;;;1.10;;
14001;SDS011;7076;51.280;12.584;2023-04-25T15:09:53;3.10;;;1.05;;
14001;SDS011;7076;51.280;12.584;2023-04-25T15:14:59;3.17;;;1.67;;
14001;SDS011;7076;51.280;12.584;2023-04-25T15:20:03;2.33;;;1.35;;
14001;SDS011;7076;51.280;12.584;2023-04-25T15:25:07;3.72;;;1.63;;
14001;SDS011;7076;51.280;12.584;2023-04-25T15:30:17;6.72;;;1.50;;
14001;SDS011;7076;51.280;12.584;2023-04-25T15:35:24;4.57;;;1.40;;
14001;SDS011;7076;51.280;12.584;2023-04-25T15:40:35;3.63;;;1.35;;
14001;SDS011;7076;51.280;12.584;2023-04-25T15:45:41;2.50;;;1.58;;
14001;SDS011;7076;51.280;12.584;2023-04-25T15:50:52;2.00;;;1.20;;
14001;SDS011;7076;51.280;12.584;2023-04-25T15:55:55;6.68;;;1.50;;
14001;SDS011;7076;51.280;12.584;2023-04-25T16:00:59;3.15;;;1.27;;
14001;SDS011;7076;51.280;12.584;2023-04-25T16:06:02;2.28;;;1.10;;
14001;SDS011;7076;51.280;12.584;2023-04-25T16:11:06;8.80;;;1.40;;
14001;SDS011;7076;51.280;12.584;2023-04-25T16:16:10;4.20;;;0.90;;
14001;SDS011;7076;51.280;12.584;2023-04-25T16:21:13;3.90;;;1.33;;
14001;SDS011;7076;51.280;12.584;2023-04-25T16:26:17;3.95;;;1.08;;
14001;SDS011;7076;51.280;12.584;2023-04-25T16:31:21;2.33;;;1.00;;
14001;SDS011;7076;51.280;12.584;2023-04-25T16:36:24;2.47;;;1.10;;
14001;SDS011;7076;51.280;12.584;2023-04-25T16:41:28;4.07;;;1.15;;
14001;SDS011;7076;51.280;12.584;2023-04-25T16:46:32;4.80;;;1.38;;
14001;SDS011;7076;51.280;12.584;2023-04-25T16:51:42;1.83;;;0.90;;
14001;SDS011;7076;51.280;12.584;2023-04-25T16:56:46;2.67;;;1.17;;
14001;SDS011;7076;51.280;12.584;2023-04-25T17:01:58;4.32;;;1.20;;
14001;SDS011;7076;51.280;12.584;2023-04-25T17:07:08;2.65;;;1.00;;
14001;SDS011;7076;51.280;12.584;2023-04-25T17:12:25;3.60;;;1.17;;
14001;SDS011;7076;51.280;12.584;2023-04-25T17:17:29;3.78;;;1.20;;
14001;SDS011;7076;51.280;12.584;2023-04-25T17:22:39;4.10;;;1.10;;
14001;SDS011;7076;51.280;12.584;2023-04-25T17:27:44;4.80;;;1.15;;
14001;SDS011;7076;51.280;12.584;2023-04-25T17:32:53;4.47;;;1.27;;
14001;SDS011;7076;51.280;12.584;2023-04-25T17:37:57;2.42;;;1.15;;
14001;SDS011;7076;51.280;12.584;2023-04-25T17:43:08;12.23;;;1.38;;
14001;SDS011;7076;51.280;12.584;2023-04-25T17:48:13;4.60;;;1.20;;
14001;SDS011;7076;51.280;12.584;2023-04-25T17:53:20;4.22;;;1.45;;
14001;SDS011;7076;51.280;12.584;2023-04-25T17:58:25;5.43;;;1.35;;
14001;SDS011;7076;51.280;12.584;2023-04-25T18:03:37;6.20;;;1.02;;
14001;SDS011;7076;51.280;12.584;2023-04-25T18:08:44;4.55;;;1.40;;
14001;SDS011;7076;51.280;12.584;2023-04-25T18:13:55;5.53;;;1.90;;
14001;SDS011;7076;51.280;12.584;2023-04-25T18:19:10;4.43;;;1.02;;
14001;SDS011;7076;51.280;12.584;2023-04-25T18:24:25;3.65;;;1.10;;
14001;SDS011;7076;51.280;12.584;2023-04-25T18:29:31;4.80;;;1.25;;
14001;SDS011;7076;51.280;12.584;2023-04-25T18:34:38;3.40;;;1.40;;
14001;SDS011;7076;51.280;12.584;2023-04-25T18:39:44;2.47;;;1.40;;
14001;SDS011;7076;51.280;12.584;2023-04-25T18:44:54;4.57;;;1.27;;
14001;SDS011;7076;51.280;12.584;2023-04-25T18:49:58;4.53;;;1.27;;
14001;SDS011;7076;51.280;12.584;2023-04-25T18:55:04;3.83;;;1.10;;
14001;SDS011;7076;51.280;12.584;2023-04-25T19:00:10;2.33;;;0.80;;
14001;SDS011;7076;51.280;12.584;2023-04-25T19:05:31;2.25;;;0.90;;
14001;SDS011;7076;51.280;12.584;2023-04-25T19:10:33;2.00;;;0.95;;
14001;SDS011;7076;51.280;12.584;2023-04-25T19:15:41;3.70;;;0.98;;
14001;SDS011;7076;51.280;12.584;2023-04-25T19:20:48;3.78;;;1.10;;
14001;SDS011;7076;51.280;12.584;2023-04-25T19:25:53;3.50;;;1.27;;
14001;SDS011;7076;51.280;12.584;2023-04-25T19:30:56;1.55;;;0.98;;
14001;SDS011;7076;51.280;12.584;2023-04-25T19:36:01;1.90;;;0.95;;
14001;SDS011;7076;51.280;12.584;2023-04-25T19:41:04;2.10;;;0.95;;
14001;SDS011;7076;51.280;12.584;2023-04-25T19:46:07;2.95;;;1.00;;
14001;SDS011;7076;51.280;12.584;2023-04-25T19:51:11;3.65;;;0.90;;
14001;SDS011;7076;51.280;12.584;2023-04-25T19:56:14;2.72;;;0.90;;
14001;SDS011;7076;51.280;12.584;2023-04-25T20:01:18;3.40;;;0.82;;
14001;SDS011;7076;51.280;12.584;2023-04-25T20:06:24;2.92;;;0.90;;
14001;SDS011;7076;51.280;12.584;2023-04-25T20:11:27;4.68;;;1.58;;
14001;SDS011;7076;51.280;12.584;2023-04-25T20:16:30;1.75;;;1.25;;
14001;SDS011;7076;51.280;12.584;2023-04-25T20:21:34;3.03;;;1.25;;
14001;SDS011;7076;51.280;12.584;2023-04-25T20:26:37;1.77;;;0.93;;
14001;SDS011;7076;51.280;12.584;2023-04-25T20:31:39;3.22;;;1.70;;
14001;SDS011;7076;51.280;12.584;2023-04-25T20:36:44;2.85;;;1.27;;
14001;SDS011;7076;51.280;12.584;2023-04-25T20:41:47;4.65;;;1.80;;
14001;SDS011;7076;51.280;12.584;2023-04-25T20:46:53;2.47;;;1.25;;
14001;SDS011;7076;51.280;12.584;2023-04-25T20:52:04;1.88;;;1.33;;
14001;SDS011;7076;51.280;12.584;2023-04-25T20:57:08;2.73;;;1.67;;
14001;SDS011;7076;51.280;12.584;2023-04-25T21:02:12;1.80;;;1.40;;
14001;SDS011;7076;51.280;12.584;2023-04-25T21:07:19;5.20;;;1.25;;
14001;SDS011;7076;51.280;12.584;2023-04-25T21:12:22;2.63;;;1.37;;
14001;SDS011;7076;51.280;12.584;2023-04-25T21:17:25;3.30;;;1.23;;
14001;SDS011;7076;51.280;12.584;2023-04-25T21:22:29;2.80;;;1.30;;
14001;SDS011;7076;51.280;12.584;2023-04-25T21:27:32;2.03;;;1.10;;
14001;SDS011;7076;51.280;12.584;2023-04-25T21:32:34;2.58;;;1.30;;
14001;SDS011;7076;51.280;12.584;2023-04-25T21:37:41;2.78;;;1.00;;
14001;SDS011;7076;51.280;12.584;2023-04-25T21:42:45;2.57;;;1.20;;
14001;SDS011;7076;51.280;12.584;2023-04-25T21:47:50;4.37;;;1.30;;
14001;SDS011;7076;51.280;12.584;2023-04-25T21:52:55;3.80;;;1.25;;
14001;SDS011;7076;51.280;12.584;2023-04-25T21:58:00;2.58;;;1.35;;
14001;SDS011;7076;51.280;12.584;2023-04-25T22:03:04;5.20;;;1.65;;
14001;SDS011;7076;51.280;12.584;2023-04-25T22:08:09;2.92;;;1.08;;
14001;SDS011;7076;51.280;12.584;2023-04-25T22:13:12;2.10;;;1.03;;
14001;SDS011;7076;51.280;12.584;2023-04-25T22:18:15;3.30;;;1.53;;
14001;SDS011;7076;51.280;12.584;2023-04-25T22:23:21;4.78;;;1.42;;
14001;SDS011;7076;51.280;12.584;2023-04-25T22:28:24;2.90;;;1.33;;
14001;SDS011;7076;51.280;12.584;2023-04-25T22:33:27;6.07;;;1.40;;
14001;SDS011;7076;51.280;12.584;2023-04-25T22:38:31;4.63;;;1.55;;
14001;SDS011;7076;51.280;12.584;2023-04-25T22:43:35;4.18;;;1.85;;
14001;SDS011;7076;51.280;12.584;2023-04-25T22:48:38;2.97;;;1.40;;
14001;SDS011;7076;51.280;12.584;2023-04-25T22:53:42;2.92;;;1.30;;
14001;SDS011;7076;51.280;12.584;2023-04-25T22:58:45;2.13;;;1.33;;
14001;SDS011;7076;51.280;12.584;2023-04-25T23:03:50;2.10;;;1.25;;
14001;SDS011;7076;51.280;12.584;2023-04-25T23:08:56;3.28;;;1.77;;
14001;SDS011;7076;51.280;12.584;2023-04-25T23:13:58;2.83;;;1.47;;
14001;SDS011;7076;51.280;12.584;2023-04-25T23:19:01;4.88;;;1.25;;
14001;SDS011;7076;51.280;12.584;2023-04-25T23:24:05;2.40;;;1.73;;
14001;SDS011;7076;51.280;12.584;2023-04-25T23:29:08;2.27;;;1.50;;
14001;SDS011;7076;51.280;12.584;2023-04-25T23:34:10;3.30;;;1.50;;
14001;SDS011;7076;51.280;12.584;2023-04-25T23:39:14;1.77;;;1.40;;
14001;SDS011;7076;51.280;12.584;2023-04-25T23:44:19;4.27;;;1.70;;
14001;SDS011;7076;51.280;12.584;2023-04-25T23:49:23;3.40;;;1.70;;
14001;SDS011;7076;51.280;12.584;2023-04-25T23:54:27;4.70;;;1.53;;
14001;SDS011;7076;51.280;12.584;2023-04-25T23:59:30;3.77;;;1.60;;
